createdAt,value
2019-01-16T00:00:11.253Z,8.20
2019-01-16T00:02:51.227Z,8.20
2019-01-16T00:05:40.511Z,8.20
2019-01-16T00:08:23.317Z,8.20
2019-01-16T00:11:14.284Z,8.20
2019-01-16T00:14:11.581Z,8.20
2019-01-16T00:16:58.204Z,8.20
2019-01-16T00:19:49.071Z,8.20
2019-01-16T00:22:35.765Z,8.20
2019-01-16T00:25:21.061Z,8.20
2019-01-16T00:28:07.496Z,8.20
2019-01-16T00:30:58.488Z,8.30
2019-01-16T00:33:40.911Z,8.20
2019-01-16T00:36:31.989Z,8.30
2019-01-16T00:39:10.155Z,8.30
2019-01-16T00:42:01.379Z,8.30
2019-01-16T00:44:58.504Z,8.30
2019-01-16T00:47:55.631Z,8.30
2019-01-16T00:50:46.736Z,8.40
2019-01-16T00:53:22.167Z,8.30
2019-01-16T00:56:16.162Z,8.30
2019-01-16T00:59:11.099Z,8.30
2019-01-16T01:01:58.881Z,8.30
2019-01-16T01:04:48.163Z,8.30
2019-01-16T01:07:36.147Z,8.30
2019-01-16T01:10:22.523Z,8.30
2019-01-16T01:13:11.793Z,8.30
2019-01-16T01:16:04.073Z,8.40
2019-01-16T01:19:04.409Z,8.30
2019-01-16T01:21:53.116Z,8.30
2019-01-16T01:24:32.644Z,8.40
2019-01-16T01:27:29.865Z,8.30
2019-01-16T01:30:08.335Z,8.40
2019-01-16T01:32:55.120Z,8.40
2019-01-16T01:35:51.869Z,8.40
2019-01-16T01:38:36.384Z,8.40
2019-01-16T01:41:27.495Z,8.40
2019-01-16T01:44:14.123Z,8.40
2019-01-16T01:46:53.627Z,8.40
2019-01-16T01:49:38.710Z,8.40
2019-01-16T01:52:29.829Z,8.40
2019-01-16T01:55:23.683Z,8.40
2019-01-16T01:58:20.061Z,8.50
2019-01-16T02:01:03.647Z,8.40
2019-01-16T02:03:50.027Z,8.40
2019-01-16T02:06:38.297Z,8.40
2019-01-16T02:09:25.930Z,8.40
2019-01-16T02:12:07.892Z,8.40
2019-01-16T02:14:52.627Z,8.40
2019-01-16T02:17:39.410Z,8.50
2019-01-16T02:20:37.530Z,8.40
2019-01-16T02:23:24.014Z,8.40
2019-01-16T02:26:15.096Z,8.50
2019-01-16T02:29:01.769Z,8.50
2019-01-16T02:31:48.233Z,8.50
2019-01-16T02:34:29.564Z,8.50
2019-01-16T02:37:16.312Z,8.40
2019-01-16T02:39:53.718Z,8.50
2019-01-16T02:42:47.661Z,8.50
2019-01-16T02:45:38.719Z,8.40
2019-01-16T02:48:32.789Z,8.40
2019-01-16T02:51:23.789Z,8.50
2019-01-16T02:54:04.659Z,8.40
2019-01-16T02:57:01.822Z,8.50
2019-01-16T02:59:58.218Z,8.50
2019-01-16T03:02:55.580Z,8.50
2019-01-16T03:05:39.323Z,8.50
2019-01-16T03:08:15.077Z,8.50
2019-01-16T03:11:02.580Z,8.40
2019-01-16T03:13:56.356Z,8.40
2019-01-16T03:16:42.834Z,8.40
2019-01-16T03:19:36.977Z,8.30
2019-01-16T03:22:20.385Z,8.20
2019-01-16T03:25:08.665Z,8.20
2019-01-16T03:28:16.579Z,8.10
2019-01-16T03:31:46.995Z,8.10
2019-01-16T03:34:10.220Z,8.00
2019-01-16T03:37:05.481Z,8.00
2019-01-16T03:40:21.253Z,8.00
2019-01-16T03:43:18.445Z,8.00
2019-01-16T03:45:53.844Z,8.00
2019-01-16T03:48:41.653Z,8.00
2019-01-16T03:51:30.776Z,8.00
2019-01-16T03:54:15.406Z,8.00
2019-01-16T03:57:32.639Z,8.00
2019-01-16T04:00:18.027Z,8.00
2019-01-16T04:03:08.916Z,8.00
2019-01-16T04:06:03.598Z,7.90
2019-01-16T04:08:46.929Z,8.00
2019-01-16T04:11:33.866Z,7.90
2019-01-16T04:14:30.975Z,7.90
2019-01-16T04:17:22.020Z,7.90
2019-01-16T04:20:12.896Z,7.90
2019-01-16T04:23:02.848Z,7.90
2019-01-16T04:25:56.085Z,7.90
2019-01-16T04:28:40.229Z,7.90
2019-01-16T04:31:26.309Z,7.90
2019-01-16T04:34:22.053Z,7.90
2019-01-16T04:37:25.257Z,7.90
2019-01-16T04:40:05.004Z,7.90
2019-01-16T04:42:52.996Z,7.90
2019-01-16T04:45:43.676Z,7.90
2019-01-16T04:48:35.815Z,7.90
2019-01-16T04:51:30.297Z,7.80
2019-01-16T04:54:36.428Z,7.80
2019-01-16T04:57:15.191Z,7.80
2019-01-16T04:59:53.365Z,7.70
2019-01-16T05:02:41.690Z,7.80
2019-01-16T05:05:32.756Z,7.70
2019-01-16T05:08:24.306Z,7.70
2019-01-16T05:11:12.215Z,7.70
2019-01-16T05:13:58.901Z,7.70
2019-01-16T05:16:59.144Z,7.70
2019-01-16T05:19:45.750Z,7.70
2019-01-16T05:22:21.669Z,7.70
2019-01-16T05:24:55.825Z,7.60
2019-01-16T05:27:42.340Z,7.60
2019-01-16T05:30:29.679Z,7.60
2019-01-16T05:33:26.624Z,7.60
2019-01-16T05:36:13.400Z,7.70
2019-01-16T05:39:11.997Z,7.70
2019-01-16T05:41:56.998Z,7.70
2019-01-16T05:44:47.745Z,7.70
2019-01-16T05:47:38.875Z,7.70
2019-01-16T05:50:27.871Z,7.60
2019-01-16T05:53:15.968Z,7.60
2019-01-16T05:56:18.880Z,7.60
2019-01-16T05:59:08.728Z,7.60
2019-01-16T06:01:55.193Z,7.60
2019-01-16T06:04:42.029Z,7.60
2019-01-16T06:07:35.808Z,7.60
2019-01-16T06:10:40.727Z,7.60
2019-01-16T06:13:23.209Z,7.60
2019-01-16T06:16:17.020Z,7.60
2019-01-16T06:19:09.617Z,7.60
2019-01-16T06:22:02.785Z,7.60
2019-01-16T06:24:49.153Z,7.60
2019-01-16T06:27:40.306Z,7.70
2019-01-16T06:30:34.187Z,7.60
2019-01-16T06:33:33.293Z,7.60
2019-01-16T06:36:20.764Z,7.60
2019-01-16T06:39:00.772Z,7.60
2019-01-16T06:42:06.791Z,7.60
2019-01-16T06:44:55.952Z,7.60
2019-01-16T06:47:42.467Z,7.50
2019-01-16T06:50:32.051Z,7.50
2019-01-16T06:53:10.624Z,7.50
2019-01-16T06:56:13.635Z,7.50
2019-01-16T06:59:00.623Z,7.40
2019-01-16T07:01:47.165Z,7.40
2019-01-16T07:04:29.538Z,7.40
2019-01-16T07:07:08.836Z,7.40
2019-01-16T07:09:55.253Z,7.40
2019-01-16T07:12:48.561Z,7.30
2019-01-16T07:15:45.748Z,7.30
2019-01-16T07:18:24.912Z,7.20
2019-01-16T07:21:12.895Z,7.20
2019-01-16T07:24:10.127Z,7.20
2019-01-16T07:26:47.111Z,7.20
2019-01-16T07:29:35.735Z,7.20
2019-01-16T07:32:22.740Z,7.20
2019-01-16T07:35:02.043Z,7.10
2019-01-16T07:37:44.647Z,7.10
2019-01-16T07:40:32.815Z,7.10
2019-01-16T07:43:19.289Z,7.00
2019-01-16T07:46:06.898Z,7.00
2019-01-16T07:48:57.774Z,7.00
2019-01-16T07:51:51.696Z,7.00
2019-01-16T07:54:48.836Z,7.00
2019-01-16T07:57:37.764Z,6.90
2019-01-16T08:00:31.007Z,6.90
2019-01-16T08:03:28.181Z,6.90
2019-01-16T08:06:14.648Z,6.90
2019-01-16T08:09:07.925Z,6.90
2019-01-16T08:12:03.831Z,6.90
2019-01-16T08:14:49.885Z,6.90
2019-01-16T08:17:37.826Z,6.90
2019-01-16T08:20:25.493Z,6.90
2019-01-16T08:23:18.451Z,6.90
2019-01-16T08:26:21.756Z,6.90
2019-01-16T08:29:11.365Z,6.90
2019-01-16T08:31:56.090Z,6.90
2019-01-16T08:34:42.877Z,7.00
2019-01-16T08:37:34.849Z,7.00
2019-01-16T08:40:32.737Z,7.00
2019-01-16T08:43:23.553Z,7.00
2019-01-16T08:46:17.224Z,7.00
2019-01-16T08:49:02.697Z,7.00
2019-01-16T08:51:49.181Z,7.00
2019-01-16T08:54:36.160Z,7.00
2019-01-16T08:57:33.195Z,7.00
2019-01-16T09:00:27.129Z,7.00
2019-01-16T09:03:21.869Z,7.00
2019-01-16T09:06:08.385Z,7.00
2019-01-16T09:09:07.429Z,6.90
2019-01-16T09:12:01.470Z,6.90
2019-01-16T09:14:48.158Z,6.90
2019-01-16T09:17:42.482Z,6.90
2019-01-16T09:20:19.389Z,6.90
2019-01-16T09:23:11.298Z,6.90
2019-01-16T09:25:59.467Z,6.90
2019-01-16T09:28:59.589Z,6.90
2019-01-16T09:31:50.555Z,6.90
2019-01-16T09:34:39.263Z,6.90
2019-01-16T09:37:22.069Z,6.90
2019-01-16T09:40:14.765Z,6.90
2019-01-16T09:43:14.865Z,6.90
2019-01-16T09:46:01.924Z,6.90
2019-01-16T09:48:48.351Z,6.90
2019-01-16T09:51:35.032Z,7.00
2019-01-16T09:54:17.157Z,7.00
2019-01-16T09:57:16.276Z,7.10
2019-01-16T10:00:02.853Z,7.20
2019-01-16T10:02:57.948Z,7.30
2019-01-16T10:05:37.503Z,7.40
2019-01-16T10:08:28.176Z,7.40
2019-01-16T10:11:16.018Z,7.40
2019-01-16T10:13:58.189Z,7.40
2019-01-16T10:16:44.871Z,7.40
2019-01-16T10:19:21.386Z,7.40
2019-01-16T10:22:02.905Z,7.40
2019-01-16T10:24:48.650Z,7.30
2019-01-16T10:27:35.067Z,7.40
2019-01-16T10:30:22.922Z,7.30
2019-01-16T10:33:21.778Z,7.40
2019-01-16T10:36:09.820Z,7.40
2019-01-16T10:39:03.498Z,7.50
2019-01-16T10:41:59.872Z,7.50
2019-01-16T10:44:46.669Z,7.50
2019-01-16T10:47:33.379Z,7.50
2019-01-16T10:50:11.203Z,7.50
2019-01-16T10:52:59.331Z,7.50
2019-01-16T10:55:50.252Z,7.50
2019-01-16T10:58:41.101Z,7.50
2019-01-16T11:01:27.780Z,7.40
2019-01-16T11:04:23.889Z,7.50
2019-01-16T11:07:05.817Z,7.40
2019-01-16T11:09:52.366Z,7.40
2019-01-16T11:12:52.182Z,7.30
2019-01-16T11:15:43.048Z,7.40
2019-01-16T11:18:27.657Z,7.40
2019-01-16T11:21:18.424Z,7.30
2019-01-16T11:24:18.135Z,7.30
2019-01-16T11:27:04.693Z,7.40
2019-01-16T11:29:58.945Z,7.40
2019-01-16T11:32:41.917Z,7.40
2019-01-16T11:35:32.996Z,7.40
2019-01-16T11:38:23.907Z,7.50
2019-01-16T11:41:04.605Z,7.50
2019-01-16T11:44:01.790Z,7.50
2019-01-16T11:46:52.724Z,7.50
2019-01-16T11:49:58.649Z,7.50
2019-01-16T11:52:47.748Z,7.50
2019-01-16T11:55:38.793Z,7.50
2019-01-16T11:58:36.141Z,7.60
2019-01-16T12:01:27.200Z,7.60
2019-01-16T12:04:15.297Z,7.60
2019-01-16T12:07:09.469Z,7.60
2019-01-16T12:10:12.465Z,7.60
2019-01-16T12:12:58.825Z,7.70
2019-01-16T12:15:46.921Z,7.70
2019-01-16T12:18:33.457Z,7.70
2019-01-16T12:21:26.501Z,7.70
2019-01-16T12:24:16.766Z,7.70
2019-01-16T12:27:03.684Z,7.70
2019-01-16T12:29:54.383Z,7.70
2019-01-16T12:32:48.649Z,7.70
2019-01-16T12:35:33.187Z,7.70
2019-01-16T12:38:24.354Z,7.70
2019-01-16T12:41:18.177Z,7.60
2019-01-16T12:44:11.381Z,7.50
2019-01-16T12:47:14.518Z,7.50
2019-01-16T12:49:58.694Z,7.50
2019-01-16T12:52:53.973Z,7.50
2019-01-16T12:55:42.667Z,7.50
2019-01-16T12:58:24.395Z,7.50
2019-01-16T13:01:15.327Z,7.60
2019-01-16T13:04:18.326Z,7.60
2019-01-16T13:07:18.718Z,7.60
2019-01-16T13:10:05.209Z,7.60
2019-01-16T13:13:02.217Z,7.60
2019-01-16T13:15:48.259Z,7.70
2019-01-16T13:18:48.385Z,7.60
2019-01-16T13:21:41.247Z,7.60
2019-01-16T13:24:25.207Z,7.50
2019-01-16T13:27:11.876Z,7.50
2019-01-16T13:29:55.292Z,7.50
2019-01-16T13:32:42.386Z,7.50
2019-01-16T13:35:29.033Z,7.50
2019-01-16T13:38:06.101Z,7.40
2019-01-16T13:40:52.276Z,7.40
2019-01-16T13:43:49.169Z,7.40
2019-01-16T13:46:37.329Z,7.40
2019-01-16T13:49:15.494Z,7.40
2019-01-16T13:52:01.195Z,7.40
2019-01-16T13:54:57.144Z,7.40
2019-01-16T13:57:42.419Z,7.40
2019-01-16T14:00:26.353Z,7.30
2019-01-16T14:03:10.837Z,7.30
2019-01-16T14:05:49.541Z,7.30
2019-01-16T14:08:40.680Z,7.30
2019-01-16T14:11:34.832Z,7.30
2019-01-16T14:14:40.988Z,7.20
2019-01-16T14:17:29.007Z,7.30
2019-01-16T14:20:19.475Z,7.20
2019-01-16T14:23:08.876Z,7.30
2019-01-16T14:25:48.655Z,7.20
2019-01-16T14:28:36.543Z,7.30
2019-01-16T14:31:23.927Z,7.20
2019-01-16T14:34:24.669Z,7.20
2019-01-16T14:37:18.683Z,7.20
2019-01-16T14:40:06.587Z,7.20
2019-01-16T14:43:02.926Z,7.20
2019-01-16T14:45:52.611Z,7.20
2019-01-16T14:48:32.805Z,7.20
2019-01-16T14:51:24.273Z,7.20
2019-01-16T14:54:15.403Z,7.20
2019-01-16T14:57:02.835Z,7.10
2019-01-16T14:59:50.925Z,7.10
2019-01-16T15:02:32.737Z,7.10
2019-01-16T15:05:21.227Z,7.00
2019-01-16T15:08:21.516Z,7.10
2019-01-16T15:11:09.557Z,7.10
2019-01-16T15:13:56.209Z,7.00
2019-01-16T15:16:56.373Z,7.00
2019-01-16T15:19:57.249Z,7.00
2019-01-16T15:22:36.621Z,6.90
2019-01-16T15:25:25.929Z,6.90
2019-01-16T15:28:12.474Z,6.90
2019-01-16T15:30:59.299Z,6.90
2019-01-16T15:33:46.046Z,6.90
2019-01-16T15:36:30.125Z,6.90
2019-01-16T15:39:07.426Z,6.90
2019-01-16T15:41:44.176Z,6.90
2019-01-16T15:44:35.032Z,6.90
2019-01-16T15:47:32.175Z,6.80
2019-01-16T15:50:18.589Z,6.80
2019-01-16T15:53:01.333Z,6.80
2019-01-16T15:55:43.512Z,6.80
2019-01-16T15:58:21.131Z,6.80
2019-01-16T16:01:09.359Z,6.80
2019-01-16T16:04:01.053Z,6.80
2019-01-16T16:06:53.281Z,6.80
2019-01-16T16:09:53.269Z,6.80
2019-01-16T16:12:46.436Z,6.80
2019-01-16T16:15:33.429Z,6.80
2019-01-16T16:18:39.946Z,6.80
2019-01-16T16:21:28.098Z,6.80
2019-01-16T16:24:14.708Z,6.80
2019-01-16T16:27:14.604Z,6.70
2019-01-16T16:29:57.355Z,6.70
2019-01-16T16:32:37.593Z,6.70
2019-01-16T16:35:24.571Z,6.70
2019-01-16T16:38:18.539Z,6.70
2019-01-16T16:41:05.373Z,6.70
2019-01-16T16:43:49.887Z,6.60
2019-01-16T16:46:28.460Z,6.60
2019-01-16T16:49:14.774Z,6.60
2019-01-16T16:52:01.614Z,6.60
2019-01-16T16:54:46.225Z,6.60
2019-01-16T16:57:31.444Z,6.60
2019-01-16T17:00:11.673Z,6.50
2019-01-16T17:03:06.987Z,6.50
2019-01-16T17:05:55.029Z,6.50
2019-01-16T17:08:39.583Z,6.50
2019-01-16T17:11:27.766Z,6.50
2019-01-16T17:14:18.793Z,6.50
2019-01-16T17:17:19.004Z,6.50
2019-01-16T17:19:58.391Z,6.40
2019-01-16T17:22:44.842Z,6.40
2019-01-16T17:25:31.911Z,6.40
2019-01-16T17:28:18.380Z,6.40
2019-01-16T17:31:11.245Z,6.40
2019-01-16T17:34:05.263Z,6.40
2019-01-16T17:36:53.332Z,6.50
2019-01-16T17:39:39.695Z,6.40
2019-01-16T17:42:37.056Z,6.40
2019-01-16T17:45:34.571Z,6.40
2019-01-16T17:48:21.497Z,6.50
2019-01-16T17:51:09.451Z,6.50
2019-01-16T17:54:03.631Z,6.50
2019-01-16T17:57:00.486Z,6.50
2019-01-16T17:59:44.728Z,6.50
2019-01-16T18:02:23.050Z,6.50
2019-01-16T18:05:19.902Z,6.50
2019-01-16T18:08:00.085Z,6.50
2019-01-16T18:10:54.405Z,6.50
2019-01-16T18:13:47.891Z,6.50
2019-01-16T18:16:34.824Z,6.50
2019-01-16T18:19:21.413Z,6.40
2019-01-16T18:22:15.673Z,6.40
2019-01-16T18:25:01.252Z,6.40
2019-01-16T18:28:02.237Z,6.40
2019-01-16T18:30:50.340Z,6.40
2019-01-16T18:33:50.384Z,6.40
2019-01-16T18:36:44.428Z,6.40
2019-01-16T18:39:29.569Z,6.40
2019-01-16T18:42:20.622Z,6.40
2019-01-16T18:45:20.588Z,6.40
2019-01-16T18:48:08.453Z,6.40
2019-01-16T18:50:55.375Z,6.40
2019-01-16T18:53:45.853Z,6.30
2019-01-16T18:56:46.008Z,6.30
2019-01-16T18:59:31.268Z,6.30
2019-01-16T19:02:24.040Z,6.30
2019-01-16T19:05:23.325Z,6.30
2019-01-16T19:08:11.431Z,6.30
2019-01-16T19:10:46.872Z,6.30
2019-01-16T19:13:33.521Z,6.30
2019-01-16T19:16:24.270Z,6.30
2019-01-16T19:19:10.523Z,6.30
2019-01-16T19:21:57.032Z,6.30
2019-01-16T19:24:53.947Z,6.30
2019-01-16T19:27:39.633Z,6.30
2019-01-16T19:30:32.843Z,6.30
2019-01-16T19:33:23.639Z,6.30
2019-01-16T19:36:08.325Z,6.30
2019-01-16T19:38:54.757Z,6.30
2019-01-16T19:41:41.715Z,6.30
2019-01-16T19:44:24.472Z,6.30
2019-01-16T19:47:11.936Z,6.30
2019-01-16T19:49:56.345Z,6.30
2019-01-16T19:52:41.551Z,6.30
2019-01-16T19:55:31.805Z,6.30
2019-01-16T19:58:18.705Z,6.30
2019-01-16T20:01:09.439Z,6.30
2019-01-16T20:04:03.986Z,6.30
2019-01-16T20:07:01.097Z,6.30
2019-01-16T20:10:04.287Z,6.30
2019-01-16T20:13:01.365Z,6.30
2019-01-16T20:15:54.551Z,6.30
2019-01-16T20:18:44.437Z,6.30
2019-01-16T20:21:47.730Z,6.30
2019-01-16T20:24:30.230Z,6.30
2019-01-16T20:27:21.941Z,6.30
2019-01-16T20:30:11.540Z,6.30
2019-01-16T20:33:02.742Z,6.20
2019-01-16T20:35:49.178Z,6.20
2019-01-16T20:38:35.557Z,6.30
2019-01-16T20:41:38.799Z,6.20
2019-01-16T20:44:15.973Z,6.30
2019-01-16T20:47:21.955Z,6.30
2019-01-16T20:50:07.665Z,6.30
2019-01-16T20:52:54.379Z,6.30
2019-01-16T20:55:45.922Z,6.30
2019-01-16T20:58:30.760Z,6.30
2019-01-16T21:01:28.699Z,6.30
2019-01-16T21:04:19.512Z,6.30
2019-01-16T21:07:02.368Z,6.30
2019-01-16T21:09:49.508Z,6.40
2019-01-16T21:12:36.155Z,6.40
2019-01-16T21:15:30.060Z,6.40
2019-01-16T21:18:16.575Z,6.50
2019-01-16T21:21:03.072Z,6.40
2019-01-16T21:23:42.559Z,6.50
2019-01-16T21:26:33.491Z,6.50
2019-01-16T21:29:23.666Z,6.50
2019-01-16T21:32:17.467Z,6.50
2019-01-16T21:35:01.094Z,6.50
2019-01-16T21:37:49.063Z,6.50
2019-01-16T21:40:38.837Z,6.50
2019-01-16T21:43:29.755Z,6.50
2019-01-16T21:46:07.589Z,6.40
2019-01-16T21:48:55.552Z,6.40
2019-01-16T21:51:58.783Z,6.40
2019-01-16T21:54:46.696Z,6.40
2019-01-16T21:57:33.459Z,6.40
2019-01-16T22:00:20.208Z,6.40
2019-01-16T22:03:04.795Z,6.40
2019-01-16T22:05:51.623Z,6.40
2019-01-16T22:08:39.352Z,6.50
2019-01-16T22:11:17.072Z,6.40
2019-01-16T22:14:05.323Z,6.40
2019-01-16T22:16:46.249Z,6.40
2019-01-16T22:19:34.371Z,6.50
2019-01-16T22:22:21.131Z,6.40
2019-01-16T22:24:58.215Z,6.50
2019-01-16T22:27:49.210Z,6.50
2019-01-16T22:30:35.964Z,6.50
2019-01-16T22:33:14.937Z,6.50
2019-01-16T22:36:02.972Z,6.50
2019-01-16T22:38:53.848Z,6.50
2019-01-16T22:41:47.661Z,6.30
2019-01-16T22:44:26.025Z,6.00
2019-01-16T22:47:09.233Z,6.00
2019-01-16T22:50:08.312Z,5.90
2019-01-16T22:53:08.500Z,5.90
2019-01-16T22:55:56.427Z,5.90
2019-01-16T22:58:31.679Z,5.90
2019-01-16T23:01:20.075Z,5.80
2019-01-16T23:04:14.129Z,5.80
2019-01-16T23:07:14.253Z,5.90
2019-01-16T23:09:53.271Z,5.80
2019-01-16T23:12:47.290Z,5.90
2019-01-16T23:15:50.573Z,5.80
2019-01-16T23:18:31.146Z,5.90
2019-01-16T23:21:09.012Z,5.90
2019-01-16T23:23:53.041Z,5.90
2019-01-16T23:26:36.913Z,5.90
2019-01-16T23:29:25.801Z,5.80
2019-01-16T23:32:13.887Z,5.80
2019-01-16T23:35:13.823Z,5.80
2019-01-16T23:38:10.990Z,5.70
2019-01-16T23:40:49.198Z,5.70
2019-01-16T23:43:43.161Z,5.70
2019-01-16T23:46:31.112Z,5.70
2019-01-16T23:49:22.863Z,5.70
2019-01-16T23:51:58.318Z,5.70
2019-01-16T23:54:36.601Z,5.70
2019-01-16T23:57:16.441Z,5.70
